Time;durP1;ratioP1;P1;durP2;ratioP2;P2;SDS_P1;SDS_P2;PMS_P1;PMS_P2;Temp;Humidity;BMP_temperature;BMP_pressure;BME280_temperature;BME280_humidity;BME280_pressure;Samples;Min_cycle;Max_cycle;Signal;HPM_P1;HPM_P2
2020/12/06 00:00:53;;;;;;;31.48;20.90;;;3.20;98.30;;;;;;5068891;23;20216;-82
2020/12/06 00:02:55;;;;;;;29.00;19.67;;;3.20;98.30;;;;;;5076305;23;20243;-81
2020/12/06 00:04:56;;;;;;;32.60;23.25;;;3.20;98.30;;;;;;5068187;23;20267;-82
2020/12/06 00:06:59;;;;;;;35.08;20.00;;;3.10;98.30;;;;;;5068278;23;20660;-81
2020/12/06 00:09:00;;;;;;;33.78;21.55;;;3.10;98.30;;;;;;5076372;23;20187;-81
2020/12/06 00:11:03;;;;;;;32.33;20.05;;;3.10;98.30;;;;;;5075770;23;20207;-81
2020/12/06 00:13:05;;;;;;;30.70;20.80;;;3.10;98.30;;;;;;5069307;23;20160;-82
2020/12/06 00:15:09;;;;;;;32.10;22.92;;;3.20;98.30;;;;;;5068081;23;20180;-82
2020/12/06 00:17:10;;;;;;;30.95;20.10;;;3.20;98.30;;;;;;5068330;23;20543;-82
2020/12/06 00:19:12;;;;;;;30.55;21.85;;;3.20;98.30;;;;;;5067601;23;20668;-81
2020/12/06 00:21:16;;;;;;;32.10;24.35;;;3.10;98.30;;;;;;5076355;23;20204;-80
2020/12/06 00:23:20;;;;;;;32.78;19.80;;;3.10;98.30;;;;;;5077042;23;20199;-80
2020/12/06 00:25:22;;;;;;;29.05;19.73;;;3.10;98.30;;;;;;5077884;23;20190;-82
2020/12/06 00:27:24;;;;;;;34.45;21.90;;;3.10;98.30;;;;;;5069152;23;20227;-81
2020/12/06 00:29:26;;;;;;;29.23;20.17;;;3.20;98.30;;;;;;5078054;23;20176;-81
2020/12/06 00:31:28;;;;;;;34.78;23.20;;;3.20;98.30;;;;;;5070432;23;20303;-82
2020/12/06 00:33:30;;;;;;;31.13;19.98;;;3.20;98.30;;;;;;5070568;23;20514;-81
2020/12/06 00:35:32;;;;;;;30.08;22.40;;;3.20;98.30;;;;;;5078230;23;20268;-82
2020/12/06 00:37:34;;;;;;;30.17;22.20;;;3.10;98.30;;;;;;5071027;23;20190;-82
2020/12/06 00:39:35;;;;;;;29.60;19.23;;;3.10;98.30;;;;;;5070115;23;20283;-81
2020/12/06 00:41:37;;;;;;;31.02;20.38;;;3.10;98.30;;;;;;5077679;23;20204;-81
2020/12/06 00:43:40;;;;;;;27.27;18.80;;;3.10;98.30;;;;;;5071286;23;20206;-81
2020/12/06 00:45:42;;;;;;;29.05;19.27;;;3.10;98.30;;;;;;5070865;23;20234;-82
2020/12/06 00:47:44;;;;;;;31.10;20.85;;;3.10;98.30;;;;;;5078393;23;20180;-82
2020/12/06 00:49:46;;;;;;;32.58;23.20;;;3.10;98.30;;;;;;5071353;23;20190;-82
2020/12/06 00:51:49;;;;;;;36.03;21.13;;;3.10;98.30;;;;;;5071088;23;20204;-82
2020/12/06 00:53:54;;;;;;;38.70;20.25;;;3.10;98.30;;;;;;5070527;23;20165;-82
2020/12/06 00:55:56;;;;;;;31.80;19.60;;;3.10;98.30;;;;;;5069340;23;20195;-82
2020/12/06 00:57:58;;;;;;;32.85;20.65;;;3.10;98.30;;;;;;5070060;23;20180;-82
2020/12/06 00:59:59;;;;;;;32.38;20.75;;;3.10;98.30;;;;;;5071838;23;20699;-81
2020/12/06 01:02:05;;;;;;;32.53;21.60;;;3.00;98.30;;;;;;5071856;23;20559;-82
2020/12/06 01:04:08;;;;;;;31.38;24.35;;;3.10;98.30;;;;;;5079722;23;20648;-82
2020/12/06 01:06:14;;;;;;;29.02;21.63;;;3.10;98.30;;;;;;5072006;23;20643;-82
2020/12/06 01:08:16;;;;;;;35.25;24.25;;;3.10;98.30;;;;;;5071481;23;20164;-82
2020/12/06 01:10:18;;;;;;;35.53;24.52;;;3.10;98.30;;;;;;5071130;23;20791;-83
2020/12/06 01:12:19;;;;;;;37.35;24.23;;;3.10;98.30;;;;;;5071811;23;20275;-82
2020/12/06 01:14:21;;;;;;;34.75;25.13;;;3.10;98.30;;;;;;5071206;23;20215;-82
2020/12/06 01:16:23;;;;;;;34.28;20.60;;;3.10;98.30;;;;;;5080321;23;20275;-82
2020/12/06 01:18:27;;;;;;;33.75;23.60;;;3.20;98.30;;;;;;5072655;23;20184;-82
2020/12/06 01:20:29;;;;;;;37.97;24.73;;;3.20;98.30;;;;;;5072838;23;20280;-80
2020/12/06 01:22:31;;;;;;;34.28;21.10;;;3.20;98.30;;;;;;5084733;23;20180;-82
2020/12/06 01:24:33;;;;;;;31.63;20.70;;;3.20;98.30;;;;;;5077073;23;20287;-82
2020/12/06 01:26:35;;;;;;;30.88;21.60;;;3.20;98.30;;;;;;5072340;23;20187;-82
2020/12/06 01:28:37;;;;;;;30.35;18.95;;;3.20;98.30;;;;;;5079203;23;20551;-82
2020/12/06 01:30:38;;;;;;;34.67;22.67;;;3.20;98.30;;;;;;5078877;23;20300;-82
2020/12/06 01:32:40;;;;;;;28.30;19.35;;;3.20;98.30;;;;;;5079603;23;20263;-81
2020/12/06 01:34:43;;;;;;;34.75;19.40;;;3.30;98.30;;;;;;5079335;23;20194;-82
2020/12/06 01:36:44;;;;;;;34.58;19.90;;;3.30;98.30;;;;;;5079885;23;20180;-82
2020/12/06 01:38:46;;;;;;;33.13;20.15;;;3.30;98.30;;;;;;5082204;23;20628;-81
2020/12/06 01:42:58;;;;;;;32.80;19.88;;;3.30;98.30;;;;;;5069973;23;20215;-82
2020/12/06 01:45:01;;;;;;;32.70;22.38;;;3.30;98.30;;;;;;5074384;23;20180;-81
2020/12/06 01:47:03;;;;;;;35.05;22.65;;;3.20;98.30;;;;;;5074533;23;20501;-82
2020/12/06 01:49:07;;;;;;;33.15;20.08;;;3.20;98.30;;;;;;5081583;23;20815;-82
2020/12/06 01:51:09;;;;;;;36.45;21.90;;;3.20;98.30;;;;;;5081248;23;20694;-82
2020/12/06 01:53:11;;;;;;;31.10;19.02;;;3.20;98.30;;;;;;5087732;23;20688;-81
2020/12/06 01:55:14;;;;;;;33.83;21.15;;;3.20;98.30;;;;;;5094174;23;20180;-81
2020/12/06 01:57:16;;;;;;;32.33;23.48;;;3.20;98.30;;;;;;5087275;23;20196;-81
2020/12/06 01:59:18;;;;;;;33.80;24.13;;;3.20;98.30;;;;;;5086730;23;20536;-82
2020/12/06 02:01:19;;;;;;;33.53;23.08;;;3.20;98.30;;;;;;5090170;23;20215;-81
2020/12/06 02:03:21;;;;;;;28.35;19.77;;;3.10;98.30;;;;;;5095398;23;20208;-81
2020/12/06 02:05:23;;;;;;;37.33;26.15;;;2.90;98.30;;;;;;5095789;23;20207;-81
2020/12/06 02:07:27;;;;;;;38.65;27.52;;;2.80;98.30;;;;;;5095986;23;20195;-81
2020/12/06 02:09:30;;;;;;;34.75;24.45;;;2.70;98.30;;;;;;5095490;23;20175;-80
2020/12/06 02:11:33;;;;;;;43.65;28.48;;;2.70;98.30;;;;;;5085844;23;20192;-81
2020/12/06 02:13:35;;;;;;;35.88;27.50;;;2.80;98.30;;;;;;5085343;23;20176;-81
2020/12/06 02:15:37;;;;;;;42.28;27.02;;;2.80;98.30;;;;;;5076579;23;20573;-81
2020/12/06 02:17:39;;;;;;;41.05;27.58;;;2.80;98.30;;;;;;5076925;23;20187;-81
2020/12/06 02:19:41;;;;;;;38.50;26.75;;;2.90;98.30;;;;;;5085179;23;20187;-80
2020/12/06 02:21:44;;;;;;;40.53;27.20;;;2.80;98.30;;;;;;5084852;23;20208;-81
2020/12/06 02:23:46;;;;;;;39.25;25.90;;;2.80;98.30;;;;;;5083470;23;20215;-81
2020/12/06 02:25:48;;;;;;;38.45;27.50;;;2.80;98.30;;;;;;5075787;23;20239;-81
2020/12/06 02:27:50;;;;;;;38.13;25.30;;;2.80;98.30;;;;;;5083717;23;20184;-81
2020/12/06 02:29:51;;;;;;;40.38;27.23;;;2.80;98.30;;;;;;5076830;23;20636;-81
2020/12/06 02:31:53;;;;;;;41.38;26.60;;;2.80;98.30;;;;;;5076409;23;20679;-81
2020/12/06 02:33:55;;;;;;;41.60;26.55;;;2.80;98.30;;;;;;5075960;23;20205;-81
2020/12/06 02:35:57;;;;;;;38.00;27.95;;;2.80;98.30;;;;;;5084784;23;20267;-79
2020/12/06 02:38:00;;;;;;;44.83;29.60;;;2.80;98.30;;;;;;5085278;23;20294;-81
2020/12/06 02:40:02;;;;;;;38.80;26.98;;;2.80;98.30;;;;;;5077054;23;20191;-82
2020/12/06 02:42:04;;;;;;;39.33;26.35;;;2.80;98.30;;;;;;5084883;23;20250;-82
2020/12/06 02:44:07;;;;;;;39.97;26.90;;;2.90;98.30;;;;;;5084372;23;20196;-81
2020/12/06 02:46:09;;;;;;;40.47;26.23;;;2.90;98.30;;;;;;5076999;23;20267;-81
2020/12/06 02:48:11;;;;;;;39.53;26.67;;;3.00;98.30;;;;;;5083919;23;20255;-81
2020/12/06 02:50:13;;;;;;;37.50;24.85;;;3.00;98.30;;;;;;5076783;23;20184;-82
2020/12/06 02:52:15;;;;;;;39.72;26.73;;;3.00;98.30;;;;;;5075624;23;20210;-82
2020/12/06 02:54:17;;;;;;;38.08;26.65;;;3.00;98.30;;;;;;5084325;23;20228;-82
2020/12/06 02:56:19;;;;;;;37.85;25.88;;;3.00;98.30;;;;;;5076987;23;20202;-82
2020/12/06 02:58:21;;;;;;;35.75;21.95;;;3.10;98.30;;;;;;5085116;23;20183;-82
2020/12/06 03:00:23;;;;;;;36.50;24.80;;;3.00;98.30;;;;;;5084291;23;20536;-82
2020/12/06 03:02:24;;;;;;;39.90;26.35;;;3.10;98.30;;;;;;5075633;23;20628;-82
2020/12/06 03:04:27;;;;;;;37.65;25.13;;;3.00;98.30;;;;;;5083469;23;20192;-82
2020/12/06 03:06:28;;;;;;;41.03;27.15;;;3.10;98.30;;;;;;5084003;23;20219;-82
2020/12/06 03:08:30;;;;;;;32.60;23.90;;;3.10;98.30;;;;;;5074962;23;20186;-82
2020/12/06 03:10:33;;;;;;;35.60;24.80;;;3.20;98.30;;;;;;5084147;23;20228;-82
2020/12/06 03:12:35;;;;;;;36.28;24.42;;;3.20;98.30;;;;;;5083016;23;20176;-82
2020/12/06 03:14:36;;;;;;;37.22;25.45;;;3.20;98.30;;;;;;5083040;23;20180;-82
2020/12/06 03:16:39;;;;;;;36.70;26.27;;;3.20;98.30;;;;;;5082218;23;20183;-82
2020/12/06 03:18:40;;;;;;;40.33;22.60;;;3.30;98.30;;;;;;5075432;23;20181;-81
2020/12/06 03:20:42;;;;;;;36.15;26.02;;;3.30;98.30;;;;;;5084749;23;20185;-81
2020/12/06 03:22:44;;;;;;;39.50;27.30;;;3.30;98.30;;;;;;5076369;23;20185;-81
2020/12/06 03:24:46;;;;;;;34.33;23.08;;;3.40;98.30;;;;;;5076148;23;20279;-82
2020/12/06 03:26:48;;;;;;;35.75;25.67;;;3.40;98.30;;;;;;5076030;23;20184;-82
2020/12/06 03:28:50;;;;;;;35.45;26.45;;;3.40;98.30;;;;;;5075431;23;20714;-82
2020/12/06 03:30:52;;;;;;;38.00;22.80;;;3.40;98.30;;;;;;5083201;23;20813;-82
2020/12/06 03:32:54;;;;;;;40.10;26.90;;;3.40;98.30;;;;;;5084346;23;20207;-81
2020/12/06 03:34:56;;;;;;;37.63;26.38;;;3.50;98.30;;;;;;5083152;23;20172;-82
2020/12/06 03:36:57;;;;;;;36.15;25.70;;;3.50;98.30;;;;;;5075009;23;20184;-81
2020/12/06 03:39:00;;;;;;;41.00;26.23;;;3.50;98.30;;;;;;5074577;23;20184;-81
2020/12/06 03:41:02;;;;;;;40.47;26.02;;;3.50;98.30;;;;;;5074594;23;20204;-82
2020/12/06 03:43:05;;;;;;;40.47;23.75;;;3.50;98.30;;;;;;5074195;23;20204;-81
2020/12/06 03:45:07;;;;;;;35.75;22.10;;;3.50;98.30;;;;;;5069700;23;20211;-82
2020/12/06 03:47:09;;;;;;;39.30;21.80;;;3.50;98.30;;;;;;5069697;23;20247;-82
2020/12/06 03:49:13;;;;;;;40.03;24.10;;;3.60;98.30;;;;;;5077733;23;20431;-81
2020/12/06 03:51:15;;;;;;;39.03;25.80;;;3.50;98.30;;;;;;5069632;23;20200;-82
2020/12/06 03:53:17;;;;;;;39.08;25.90;;;3.60;98.30;;;;;;5077717;23;20177;-82
2020/12/06 03:55:19;;;;;;;37.30;21.60;;;3.60;98.30;;;;;;5077921;23;20556;-81
2020/12/06 03:57:20;;;;;;;34.00;21.60;;;3.60;98.30;;;;;;5069722;23;20267;-81
2020/12/06 03:59:23;;;;;;;43.72;25.25;;;3.60;98.30;;;;;;5077630;23;20177;-81
2020/12/06 04:01:25;;;;;;;40.90;22.88;;;3.60;98.30;;;;;;5069705;23;20275;-81
2020/12/06 04:03:27;;;;;;;31.48;20.95;;;3.60;98.30;;;;;;5070397;23;20559;-81
2020/12/06 04:05:28;;;;;;;41.75;26.20;;;3.60;98.30;;;;;;5069772;23;20223;-81
2020/12/06 04:07:30;;;;;;;42.33;25.95;;;3.70;98.30;;;;;;5077960;23;20653;-82
2020/12/06 04:09:32;;;;;;;37.67;22.48;;;3.60;98.30;;;;;;5070119;23;20180;-82
2020/12/06 04:11:34;;;;;;;41.90;27.40;;;3.70;98.30;;;;;;5078178;23;20200;-82
2020/12/06 04:13:36;;;;;;;42.58;27.63;;;3.70;98.30;;;;;;5072329;23;20187;-82
2020/12/06 04:15:38;;;;;;;38.38;23.30;;;3.70;98.30;;;;;;5073614;23;20263;-82
2020/12/06 04:17:40;;;;;;;41.50;26.77;;;3.70;98.30;;;;;;5073182;23;20180;-82
2020/12/06 04:19:42;;;;;;;39.55;26.67;;;3.80;98.30;;;;;;5080565;23;20181;-81
2020/12/06 04:21:44;;;;;;;44.50;27.27;;;3.80;98.30;;;;;;5078150;23;20197;-82
2020/12/06 04:23:46;;;;;;;41.90;26.25;;;3.80;98.30;;;;;;5078262;23;20548;-82
2020/12/06 04:25:48;;;;;;;43.75;28.38;;;3.80;98.30;;;;;;5077615;23;20524;-81
2020/12/06 04:27:50;;;;;;;39.58;25.55;;;3.80;98.30;;;;;;5080035;23;20620;-81
2020/12/06 04:29:51;;;;;;;37.85;22.67;;;3.90;98.30;;;;;;5074329;23;20259;-81
2020/12/06 04:31:54;;;;;;;42.10;23.42;;;3.90;98.30;;;;;;5081682;23;20204;-82
2020/12/06 04:33:56;;;;;;;42.22;27.13;;;3.90;98.30;;;;;;5082871;23;20173;-81
2020/12/06 04:35:58;;;;;;;41.38;24.30;;;3.90;98.30;;;;;;5082670;23;20198;-81
2020/12/06 04:38:00;;;;;;;44.10;29.75;;;3.90;98.30;;;;;;5081316;23;20291;-82
2020/12/06 04:40:04;;;;;;;42.78;29.77;;;4.00;98.30;;;;;;5073988;23;20263;-81
2020/12/06 04:42:05;;;;;;;43.40;25.05;;;3.90;98.30;;;;;;5081294;23;20208;-82
2020/12/06 04:44:08;;;;;;;48.88;27.88;;;4.00;98.30;;;;;;5081964;23;20282;-82
2020/12/06 04:46:10;;;;;;;46.28;25.27;;;4.00;98.30;;;;;;5082536;23;20845;-82
2020/12/06 04:48:21;;;;;;;46.80;26.02;;;4.00;98.30;;;;;;5082634;23;20233;-81
2020/12/06 04:50:29;;;;;;;47.28;27.08;;;4.00;98.30;;;;;;5082872;23;20169;-82
2020/12/06 04:52:42;;;;;;;40.85;24.17;;;3.90;98.30;;;;;;5075212;23;20220;-81
2020/12/06 04:54:51;;;;;;;50.85;28.45;;;3.90;98.30;;;;;;5083702;23;20171;-80
2020/12/06 04:57:00;;;;;;;44.38;25.17;;;4.00;98.30;;;;;;5083141;23;20183;-81
2020/12/06 04:59:03;;;;;;;46.92;28.77;;;4.00;98.30;;;;;;5083498;23;20171;-81
2020/12/06 05:01:04;;;;;;;44.67;25.35;;;3.90;98.30;;;;;;5083385;23;20203;-80
2020/12/06 05:03:08;;;;;;;46.72;29.20;;;3.90;98.30;;;;;;5083604;23;20176;-82
2020/12/06 05:05:14;;;;;;;43.00;25.58;;;4.00;98.30;;;;;;5083893;23;20252;-81
2020/12/06 05:07:17;;;;;;;43.25;26.42;;;4.00;98.30;;;;;;5075906;23;20169;-82
2020/12/06 05:09:22;;;;;;;46.78;25.75;;;4.00;98.30;;;;;;5083894;23;20271;-81
2020/12/06 05:11:24;;;;;;;43.95;26.60;;;4.00;98.30;;;;;;5073077;23;20259;-82
2020/12/06 05:13:26;;;;;;;47.30;27.77;;;4.00;98.30;;;;;;5072396;23;20698;-82
2020/12/06 05:15:28;;;;;;;47.65;29.95;;;4.00;98.30;;;;;;5072311;23;20198;-82
2020/12/06 05:17:30;;;;;;;44.25;25.42;;;4.00;98.30;;;;;;5079634;23;20181;-82
2020/12/06 05:19:32;;;;;;;43.78;24.88;;;4.00;98.30;;;;;;5071931;23;20191;-82
2020/12/06 05:21:36;;;;;;;39.65;25.50;;;4.00;98.30;;;;;;5080776;23;20204;-82
2020/12/06 05:23:38;;;;;;;43.35;25.67;;;4.10;98.30;;;;;;5072953;23;20191;-82
2020/12/06 05:25:42;;;;;;;50.73;27.87;;;4.10;98.30;;;;;;5079662;23;20525;-81
2020/12/06 05:27:47;;;;;;;46.38;26.25;;;4.00;98.30;;;;;;5078944;23;20931;-81
2020/12/06 05:29:49;;;;;;;40.25;25.52;;;4.00;98.30;;;;;;5078953;23;20177;-81
2020/12/06 05:31:51;;;;;;;43.72;26.42;;;4.00;98.30;;;;;;5079010;23;20874;-81
2020/12/06 05:33:53;;;;;;;53.88;26.05;;;4.10;98.30;;;;;;5079267;23;20259;-82
2020/12/06 05:35:59;;;;;;;44.25;26.05;;;4.10;98.30;;;;;;5078453;23;20185;-81
2020/12/06 05:38:04;;;;;;;47.97;30.08;;;4.10;98.30;;;;;;5079007;23;20240;-81
2020/12/06 05:40:08;;;;;;;44.23;24.17;;;4.10;98.30;;;;;;5078491;23;20196;-81
2020/12/06 05:42:09;;;;;;;52.05;30.23;;;4.10;98.30;;;;;;5077982;23;20452;-81
2020/12/06 05:44:11;;;;;;;45.20;24.23;;;4.10;98.30;;;;;;5070205;23;20211;-81
2020/12/06 05:46:15;;;;;;;40.80;25.20;;;4.10;98.30;;;;;;5078309;23;20486;-81
2020/12/06 05:48:17;;;;;;;44.55;23.83;;;4.10;98.30;;;;;;5079068;23;20447;-81
2020/12/06 05:50:19;;;;;;;42.75;25.65;;;4.10;98.30;;;;;;5078636;23;20575;-81
2020/12/06 05:52:21;;;;;;;43.17;24.80;;;4.10;98.30;;;;;;5078740;23;20196;-81
2020/12/06 05:54:24;;;;;;;47.20;24.93;;;4.10;98.30;;;;;;5090435;23;20228;-81
2020/12/06 05:56:26;;;;;;;44.90;24.47;;;4.10;98.30;;;;;;5092897;23;20486;-81
2020/12/06 05:58:28;;;;;;;45.23;25.37;;;4.10;98.30;;;;;;5091952;23;20424;-80
2020/12/06 06:00:31;;;;;;;44.60;24.57;;;4.20;98.30;;;;;;5080673;23;20468;-81
2020/12/06 06:02:35;;;;;;;39.27;23.83;;;4.10;98.30;;;;;;5087149;23;20429;-81
2020/12/06 06:04:38;;;;;;;42.40;28.40;;;4.20;98.30;;;;;;5075091;23;20817;-81
2020/12/06 06:06:41;;;;;;;43.43;24.30;;;4.20;98.30;;;;;;5083356;23;20451;-81
2020/12/06 06:08:48;;;;;;;41.60;25.60;;;4.20;98.30;;;;;;5073983;23;20429;-81
2020/12/06 06:11:06;;;;;;;45.20;25.23;;;4.20;98.30;;;;;;5081979;23;20472;-81
2020/12/06 06:13:23;;;;;;;44.97;25.73;;;4.20;98.30;;;;;;5075049;23;20470;-81
2020/12/06 06:15:26;;;;;;;45.15;25.85;;;4.20;98.30;;;;;;5075143;23;20679;-82
2020/12/06 06:17:29;;;;;;;43.30;24.52;;;4.20;98.30;;;;;;5082795;23;20184;-82
2020/12/06 06:19:31;;;;;;;46.67;27.87;;;4.20;98.30;;;;;;5082348;23;20180;-82
2020/12/06 06:21:37;;;;;;;46.93;24.30;;;4.30;98.30;;;;;;5073510;23;20513;-81
2020/12/06 06:23:41;;;;;;;47.30;26.48;;;4.20;98.30;;;;;;5081774;23;20427;-82
2020/12/06 06:25:44;;;;;;;42.27;25.03;;;4.30;98.30;;;;;;5081952;23;20204;-82
2020/12/06 06:27:46;;;;;;;44.70;25.30;;;4.30;98.30;;;;;;5082294;23;20424;-82
2020/12/06 06:29:51;;;;;;;44.17;26.07;;;4.30;98.30;;;;;;5080824;23;20423;-80
2020/12/06 06:31:56;;;;;;;44.93;24.47;;;4.30;98.30;;;;;;5080657;23;20539;-80
2020/12/06 06:34:00;;;;;;;48.80;26.87;;;4.30;98.30;;;;;;5080782;23;20460;-81
2020/12/06 06:36:05;;;;;;;45.83;26.30;;;4.30;98.30;;;;;;5080402;23;20421;-81
2020/12/06 06:38:12;;;;;;;43.53;25.03;;;4.30;98.30;;;;;;5072049;23;20762;-80
2020/12/06 06:40:14;;;;;;;39.47;24.73;;;4.30;98.30;;;;;;5072150;23;20510;-80
2020/12/06 06:42:16;;;;;;;47.07;27.90;;;4.30;98.30;;;;;;5071618;23;20456;-80
2020/12/06 06:44:19;;;;;;;40.50;25.70;;;4.30;98.30;;;;;;5079196;23;20433;-80
2020/12/06 06:46:21;;;;;;;39.47;24.87;;;4.30;98.30;;;;;;5078898;23;20432;-80
2020/12/06 06:48:24;;;;;;;219.13;105.13;;;4.30;98.30;;;;;;5078850;23;20801;-81
2020/12/06 06:50:26;;;;;;;161.53;73.00;;;4.30;98.30;;;;;;5079085;23;20429;-81
2020/12/06 06:52:29;;;;;;;130.20;57.43;;;4.30;98.30;;;;;;5078951;23;20429;-80
2020/12/06 06:54:32;;;;;;;82.63;43.30;;;4.40;98.30;;;;;;5078154;23;20425;-81
2020/12/06 06:56:48;;;;;;;47.93;26.30;;;4.40;98.30;;;;;;5078654;23;20444;-81
2020/12/06 06:58:50;;;;;;;49.33;26.40;;;4.40;98.30;;;;;;5087461;23;20410;-80
2020/12/06 07:01:16;;;;;;;45.73;25.50;;;4.40;98.30;;;;;;5081351;23;20480;-81
2020/12/06 07:03:19;;;;;;;46.10;26.98;;;4.40;98.30;;;;;;5079975;23;20918;-81
2020/12/06 07:05:21;;;;;;;40.33;23.20;;;4.40;98.30;;;;;;5080964;23;20201;-83
2020/12/06 07:07:43;;;;;;;41.13;25.73;;;4.40;98.30;;;;;;5081363;23;20428;-81
2020/12/06 07:09:45;;;;;;;46.03;27.27;;;4.40;98.30;;;;;;5083053;23;20406;-81
2020/12/06 07:11:48;;;;;;;41.47;25.30;;;4.40;98.30;;;;;;5082280;23;20835;-82
2020/12/06 07:13:50;;;;;;;42.07;24.53;;;4.40;98.30;;;;;;5074240;23;20439;-82
2020/12/06 07:15:52;;;;;;;45.33;26.27;;;4.40;98.30;;;;;;5083716;23;20929;-82
2020/12/06 07:17:56;;;;;;;42.77;25.10;;;4.40;98.30;;;;;;5083294;23;20434;-82
2020/12/06 07:19:58;;;;;;;44.87;24.93;;;4.40;98.30;;;;;;5080381;23;20428;-80
2020/12/06 07:22:02;;;;;;;46.97;25.80;;;4.50;98.30;;;;;;5072362;23;20500;-80
2020/12/06 07:24:06;;;;;;;42.43;25.23;;;4.50;98.30;;;;;;5071693;23;20419;-80
2020/12/06 07:26:08;;;;;;;47.63;26.63;;;4.50;98.30;;;;;;5070783;23;20454;-83
2020/12/06 07:28:10;;;;;;;52.60;27.33;;;4.50;98.30;;;;;;5079700;23;20422;-81
2020/12/06 07:30:16;;;;;;;47.27;27.30;;;4.50;98.30;;;;;;5080665;23;20452;-81
2020/12/06 07:32:20;;;;;;;48.60;25.20;;;4.50;98.30;;;;;;5079703;23;20448;-81
2020/12/06 07:34:22;;;;;;;41.67;24.90;;;4.50;98.30;;;;;;5072562;23;20479;-81
2020/12/06 07:36:25;;;;;;;48.00;27.60;;;4.60;98.30;;;;;;5074142;23;20434;-81
2020/12/06 07:38:27;;;;;;;49.90;25.77;;;4.60;98.30;;;;;;5074017;23;20430;-81
2020/12/06 07:40:29;;;;;;;42.40;26.03;;;4.60;98.30;;;;;;5079886;23;20514;-80
2020/12/06 07:42:31;;;;;;;46.17;26.40;;;4.60;98.30;;;;;;5067658;23;20467;-79
2020/12/06 07:44:43;;;;;;;43.17;25.37;;;4.60;98.30;;;;;;5069257;23;20426;-79
2020/12/06 07:46:58;;;;;;;42.93;24.77;;;4.60;98.30;;;;;;5069464;23;20418;-80
2020/12/06 07:49:01;;;;;;;50.33;26.50;;;4.70;98.30;;;;;;5069291;23;20419;-79
2020/12/06 07:51:03;;;;;;;53.53;28.60;;;4.70;98.30;;;;;;5069578;23;20408;-79
2020/12/06 07:53:05;;;;;;;47.53;26.37;;;4.70;98.30;;;;;;5069714;23;20553;-79
2020/12/06 07:55:08;;;;;;;50.07;27.50;;;4.80;98.30;;;;;;5068865;23;20802;-79
2020/12/06 07:57:11;;;;;;;62.97;31.80;;;4.70;98.30;;;;;;5069206;23;20493;-79
2020/12/06 07:59:20;;;;;;;54.57;32.80;;;4.80;98.30;;;;;;5069322;23;20963;-79
2020/12/06 08:01:23;;;;;;;63.87;32.20;;;4.80;98.30;;;;;;5069424;23;20421;-80
2020/12/06 08:03:25;;;;;;;52.80;27.20;;;4.90;98.30;;;;;;5077977;23;20927;-79
2020/12/06 08:05:30;;;;;;;64.10;30.80;;;4.90;98.30;;;;;;5069469;23;20451;-79
2020/12/06 08:07:37;;;;;;;52.70;29.00;;;5.00;98.30;;;;;;5077876;23;20813;-79
2020/12/06 08:09:42;;;;;;;52.50;28.00;;;5.00;98.30;;;;;;5069345;23;20450;-79
2020/12/06 08:11:49;;;;;;;52.83;28.77;;;5.00;98.30;;;;;;5068926;23;20773;-79
2020/12/06 08:13:52;;;;;;;50.87;27.83;;;5.00;98.30;;;;;;5069567;23;20497;-80
2020/12/06 08:16:04;;;;;;;50.20;27.70;;;5.00;98.30;;;;;;5069462;23;20427;-79
2020/12/06 08:18:12;;;;;;;51.33;27.77;;;5.00;98.30;;;;;;5068873;23;20393;-79
2020/12/06 08:20:15;;;;;;;47.93;26.07;;;5.00;98.30;;;;;;5069467;23;20415;-79
2020/12/06 08:22:18;;;;;;;47.07;25.80;;;5.00;98.30;;;;;;5068771;23;20900;-79
2020/12/06 08:24:23;;;;;;;59.93;32.07;;;5.00;98.30;;;;;;5068842;23;20439;-79
2020/12/06 08:26:35;;;;;;;63.13;33.67;;;5.10;98.30;;;;;;5069786;23;20484;-79
2020/12/06 08:28:37;;;;;;;55.77;31.67;;;5.10;98.30;;;;;;5069433;23;20423;-79
2020/12/06 08:30:39;;;;;;;81.83;39.23;;;5.20;98.30;;;;;;5069094;23;20406;-80
2020/12/06 08:32:41;;;;;;;69.90;35.20;;;5.20;98.30;;;;;;5069267;23;20495;-79
2020/12/06 08:34:56;;;;;;;49.70;26.50;;;5.20;98.30;;;;;;5069543;23;20436;-79
2020/12/06 08:37:13;;;;;;;49.30;28.00;;;5.30;98.30;;;;;;5069068;23;20493;-79
2020/12/06 08:39:17;;;;;;;49.03;26.20;;;5.20;98.30;;;;;;5069002;23;20419;-79
2020/12/06 08:41:24;;;;;;;51.60;26.00;;;5.30;98.30;;;;;;5068364;23;20476;-80
2020/12/06 08:43:45;;;;;;;46.83;25.07;;;5.30;98.30;;;;;;5069614;23;20400;-79
2020/12/06 08:46:05;;;;;;;51.57;25.97;;;5.30;98.30;;;;;;5069556;23;20414;-79
2020/12/06 08:48:07;;;;;;;48.00;25.87;;;5.30;98.30;;;;;;5069554;23;20427;-79
2020/12/06 08:50:11;;;;;;;50.57;26.10;;;5.30;98.30;;;;;;5069411;23;20448;-79
2020/12/06 08:52:20;;;;;;;50.40;26.83;;;5.30;98.30;;;;;;5069509;23;20448;-79
2020/12/06 08:54:33;;;;;;;49.33;25.50;;;5.30;98.30;;;;;;5069296;23;20418;-79
2020/12/06 08:56:36;;;;;;;42.70;25.10;;;5.40;98.30;;;;;;5069694;23;20431;-79
2020/12/06 08:58:40;;;;;;;47.30;25.20;;;5.40;98.30;;;;;;5077736;23;20390;-80
2020/12/06 09:00:42;;;;;;;51.57;27.07;;;5.40;98.30;;;;;;5069311;23;20985;-79
2020/12/06 09:02:43;;;;;;;44.33;25.47;;;5.40;98.30;;;;;;5069563;23;21027;-80
2020/12/06 09:04:45;;;;;;;109.67;48.20;;;5.40;98.30;;;;;;5077431;23;20463;-80
2020/12/06 09:06:48;;;;;;;71.00;37.90;;;5.40;98.30;;;;;;5069527;23;20436;-79
2020/12/06 09:08:50;;;;;;;56.03;29.03;;;5.50;98.30;;;;;;5068960;23;20416;-80
2020/12/06 09:10:53;;;;;;;48.80;26.70;;;5.50;98.30;;;;;;5069408;23;20459;-79
2020/12/06 09:12:54;;;;;;;47.30;25.30;;;5.60;98.30;;;;;;5069612;23;20473;-81
2020/12/06 09:14:56;;;;;;;44.50;24.50;;;5.60;98.30;;;;;;5069755;23;20717;-80
2020/12/06 09:16:58;;;;;;;49.10;26.30;;;5.60;98.30;;;;;;5077601;23;20440;-80
2020/12/06 09:19:01;;;;;;;57.60;24.80;;;5.60;98.30;;;;;;5070117;23;20432;-81
2020/12/06 09:21:04;;;;;;;43.70;25.47;;;5.60;98.30;;;;;;5069784;23;20497;-80
2020/12/06 09:23:08;;;;;;;46.37;24.83;;;5.60;98.30;;;;;;5069762;23;20893;-80
2020/12/06 09:25:10;;;;;;;41.70;24.47;;;5.60;98.30;;;;;;5078029;23;20471;-80
2020/12/06 09:27:14;;;;;;;43.17;25.40;;;5.70;98.30;;;;;;5069665;23;20474;-80
2020/12/06 09:29:16;;;;;;;57.43;28.43;;;5.70;98.30;;;;;;5068931;23;20732;-80
2020/12/06 09:31:20;;;;;;;54.97;29.20;;;5.70;98.30;;;;;;5069425;23;20427;-80
2020/12/06 09:33:22;;;;;;;50.87;26.37;;;5.70;98.30;;;;;;5070001;23;20434;-79
2020/12/06 09:35:23;;;;;;;105.87;50.93;;;5.70;98.30;;;;;;5077416;23;20750;-79
2020/12/06 09:37:25;;;;;;;50.00;27.20;;;5.70;98.30;;;;;;5071242;23;20403;-80
2020/12/06 09:39:27;;;;;;;47.33;24.83;;;5.80;98.30;;;;;;5070895;23;20402;-81
2020/12/06 09:41:29;;;;;;;49.87;25.50;;;5.80;98.30;;;;;;5070920;23;20465;-80
2020/12/06 09:43:32;;;;;;;50.87;24.47;;;5.80;98.30;;;;;;5071631;23;20851;-80
2020/12/06 09:45:34;;;;;;;45.73;25.50;;;5.80;98.30;;;;;;5070935;23;20489;-80
2020/12/06 09:47:38;;;;;;;43.60;24.60;;;5.80;98.30;;;;;;5079627;23;20420;-80
2020/12/06 09:49:40;;;;;;;51.80;25.77;;;5.90;98.30;;;;;;5072605;23;20487;-79
2020/12/06 09:51:42;;;;;;;46.43;25.80;;;5.90;98.30;;;;;;5072208;23;20426;-80
2020/12/06 09:53:48;;;;;;;50.50;25.90;;;5.90;98.30;;;;;;5071436;23;20406;-80
2020/12/06 09:55:50;;;;;;;43.50;25.27;;;5.90;98.30;;;;;;5071639;23;20405;-80
2020/12/06 09:57:51;;;;;;;48.10;26.00;;;6.00;98.30;;;;;;5071463;23;20913;-81
2020/12/06 09:59:54;;;;;;;45.73;26.33;;;6.00;98.30;;;;;;5079996;23;20408;-80
2020/12/06 10:01:56;;;;;;;42.80;25.33;;;6.00;98.30;;;;;;5071667;23;20483;-80
2020/12/06 10:03:58;;;;;;;48.57;27.07;;;6.00;98.30;;;;;;5070687;23;20417;-79
2020/12/06 10:06:00;;;;;;;46.80;25.50;;;6.00;98.30;;;;;;5077904;23;20425;-79
2020/12/06 10:08:03;;;;;;;53.20;26.57;;;6.00;98.30;;;;;;5069977;23;20781;-79
2020/12/06 10:10:05;;;;;;;55.07;27.00;;;6.00;98.30;;;;;;5070124;23;20405;-79
2020/12/06 10:12:07;;;;;;;45.13;27.77;;;6.10;98.30;;;;;;5069753;23;20827;-79
2020/12/06 10:14:08;;;;;;;51.47;27.97;;;6.10;98.30;;;;;;5070292;23;20406;-79
2020/12/06 10:16:16;;;;;;;52.40;28.40;;;6.10;98.30;;;;;;5070186;23;20510;-79
2020/12/06 10:18:18;;;;;;;51.13;28.90;;;6.10;98.30;;;;;;5070001;23;20399;-81
2020/12/06 10:20:20;;;;;;;54.47;25.77;;;6.10;98.30;;;;;;5069963;23;20435;-81
2020/12/06 10:22:21;;;;;;;45.00;24.57;;;6.10;98.30;;;;;;5070344;23;20430;-80
2020/12/06 10:24:38;;;;;;;46.77;27.60;;;6.20;98.30;;;;;;5070272;23;20475;-81
2020/12/06 10:26:40;;;;;;;50.70;27.63;;;6.20;98.30;;;;;;5069881;23;20426;-81
2020/12/06 10:28:42;;;;;;;45.37;26.93;;;6.20;98.30;;;;;;5070304;23;20428;-81
2020/12/06 10:30:45;;;;;;;48.23;27.90;;;6.20;98.30;;;;;;5070050;23;20407;-80
2020/12/06 10:32:47;;;;;;;47.07;27.03;;;6.20;98.30;;;;;;5070042;23;20454;-81
2020/12/06 10:34:49;;;;;;;47.20;28.10;;;6.20;98.30;;;;;;5070726;23;20414;-81